createdAt,value
2023-02-06T00:01:47.440Z,54.25
2023-02-06T00:04:15.766Z,55.67
2023-02-06T00:06:44.083Z,48.40
2023-02-06T00:12:01.990Z,38.28
2023-02-06T00:14:30.111Z,39.10
2023-02-06T00:17:01.608Z,37.38
2023-02-06T00:19:29.364Z,34.42
2023-02-06T00:21:57.148Z,31.88
2023-02-06T00:24:25.301Z,39.13
2023-02-06T00:26:53.102Z,35.67
2023-02-06T00:29:20.823Z,31.33
2023-02-06T00:31:49.362Z,35.15
2023-02-06T00:34:18.651Z,38.13
2023-02-06T00:36:46.405Z,32.83
2023-02-06T00:39:14.735Z,31.92
2023-02-06T00:41:42.450Z,36.70
2023-02-06T00:44:10.310Z,28.63
2023-02-06T00:46:38.624Z,29.02
2023-02-06T00:49:06.380Z,29.92
2023-02-06T00:51:39.303Z,30.05
2023-02-06T00:54:07.734Z,27.40
2023-02-06T00:56:36.287Z,28.45
2023-02-06T00:59:04.727Z,28.40
2023-02-06T01:01:32.496Z,24.13
2023-02-06T01:04:00.223Z,33.47
2023-02-06T01:06:28.591Z,36.00
2023-02-06T01:08:57.709Z,30.52
2023-02-06T01:11:27.531Z,23.02
2023-02-06T01:13:56.066Z,29.98
2023-02-06T01:16:25.642Z,27.88
2023-02-06T01:18:53.442Z,28.35
2023-02-06T01:21:23.947Z,22.10
2023-02-06T01:23:53.679Z,32.85
2023-02-06T01:28:52.485Z,31.83
2023-02-06T01:31:22.745Z,33.72
2023-02-06T01:33:52.141Z,30.90
2023-02-06T01:36:20.982Z,30.98
2023-02-06T01:38:49.930Z,41.23
2023-02-06T01:41:20.016Z,34.97
2023-02-06T01:44:15.604Z,31.98
2023-02-06T01:46:46.465Z,35.20
2023-02-06T01:49:18.304Z,31.20
2023-02-06T01:51:47.706Z,35.05
2023-02-06T01:54:16.713Z,44.58
2023-02-06T01:56:49.627Z,34.58
2023-02-06T01:59:19.136Z,43.45
2023-02-06T02:01:47.311Z,41.50
2023-02-06T02:04:20.836Z,37.25
2023-02-06T02:06:58.738Z,37.90
2023-02-06T02:09:28.005Z,39.38
2023-02-06T02:11:55.809Z,38.33
2023-02-06T02:14:25.536Z,43.00
2023-02-06T02:22:52.171Z,52.10
2023-02-06T02:43:29.764Z,37.90
2023-02-06T03:00:36.918Z,33.88
2023-02-06T03:03:08.704Z,30.90
2023-02-06T03:06:03.895Z,44.17
2023-02-06T03:08:44.818Z,27.40
2023-02-06T03:14:07.486Z,30.13
2023-02-06T03:16:48.836Z,31.67
2023-02-06T03:19:22.001Z,39.45
2023-02-06T03:21:50.978Z,32.60
2023-02-06T03:24:25.160Z,30.08
2023-02-06T03:26:57.992Z,35.28
2023-02-06T03:29:30.006Z,28.70
2023-02-06T03:32:03.587Z,34.38
2023-02-06T03:34:38.634Z,31.30
2023-02-06T03:37:06.787Z,34.85
2023-02-06T03:39:35.065Z,29.65
2023-02-06T03:42:06.044Z,27.77
2023-02-06T03:44:37.509Z,31.75
2023-02-06T07:42:15.512Z,41.25
2023-02-06T07:47:47.017Z,45.38
2023-02-06T08:06:46.154Z,39.65
2023-02-06T08:32:02.117Z,46.13
2023-02-06T08:38:08.730Z,52.28
2023-02-06T08:41:17.158Z,40.30
2023-02-06T08:47:38.836Z,42.17
2023-02-06T10:01:44.109Z,47.42
2023-02-06T10:04:43.624Z,41.80
2023-02-06T10:19:46.690Z,38.00
2023-02-06T10:22:22.454Z,34.65
2023-02-06T10:25:06.256Z,40.28
2023-02-06T10:27:35.902Z,30.70
2023-02-06T10:32:46.538Z,31.13
2023-02-06T10:35:25.928Z,36.05
2023-02-06T10:38:34.336Z,35.90
2023-02-06T10:43:48.605Z,38.17
2023-02-06T10:46:36.786Z,29.95
2023-02-06T10:49:12.544Z,33.85
2023-02-06T10:51:44.744Z,35.15
2023-02-06T10:54:17.958Z,33.53
2023-02-06T10:56:48.803Z,31.48
2023-02-06T10:59:25.078Z,32.13
2023-02-06T11:01:58.159Z,29.60
2023-02-06T11:04:34.388Z,29.73
2023-02-06T11:07:09.441Z,24.67
2023-02-06T11:09:37.977Z,37.95
2023-02-06T11:12:12.956Z,35.67
2023-02-06T11:14:42.056Z,32.78
2023-02-06T11:17:11.476Z,36.25
2023-02-06T11:19:44.758Z,35.10
2023-02-06T11:22:16.198Z,31.52
2023-02-06T11:25:03.188Z,31.23
2023-02-06T11:27:33.331Z,28.50
2023-02-06T11:30:07.462Z,31.15
2023-02-06T11:32:40.650Z,32.08
2023-02-06T11:35:23.125Z,31.88
2023-02-06T11:37:54.081Z,29.58
2023-02-06T11:40:28.291Z,36.17
2023-02-06T11:43:18.558Z,29.67
2023-02-06T11:45:48.584Z,42.50
2023-02-06T11:48:37.248Z,33.40
2023-02-06T11:51:05.916Z,36.13
2023-02-06T11:53:36.003Z,33.28
2023-02-06T11:56:08.068Z,33.10
2023-02-06T11:58:36.032Z,32.78
2023-02-06T12:01:06.999Z,21.80
2023-02-06T12:03:38.534Z,41.47
2023-02-06T12:06:13.168Z,28.65
2023-02-06T12:08:47.920Z,29.67
2023-02-06T12:11:22.478Z,31.20
2023-02-06T12:13:59.315Z,27.77
2023-02-06T12:16:31.496Z,23.85
2023-02-06T12:19:04.295Z,22.85
2023-02-06T12:21:44.520Z,34.70
2023-02-06T12:24:28.076Z,28.23
2023-02-06T12:26:59.795Z,27.20
2023-02-06T12:29:37.186Z,33.58
2023-02-06T12:32:19.743Z,23.33
2023-02-06T12:34:55.535Z,27.10
2023-02-06T12:37:35.930Z,27.60
2023-02-06T12:40:08.940Z,30.33
2023-02-06T12:42:43.447Z,27.75
2023-02-06T12:45:32.696Z,34.45
2023-02-06T12:48:11.932Z,29.90
2023-02-06T12:50:46.706Z,25.27
2023-02-06T12:53:19.948Z,22.88
2023-02-06T12:56:00.506Z,23.33
2023-02-06T12:58:43.855Z,17.00
2023-02-06T13:01:34.350Z,24.67
2023-02-06T13:04:14.735Z,24.60
2023-02-06T13:06:57.365Z,22.92
2023-02-06T13:09:34.361Z,21.13
2023-02-06T13:12:18.806Z,23.58
2023-02-06T13:14:49.140Z,25.75
2023-02-06T13:17:26.127Z,30.02
2023-02-06T13:20:03.414Z,21.73
2023-02-06T13:22:48.724Z,23.17
2023-02-06T13:26:03.982Z,20.45
2023-02-06T13:29:02.555Z,27.08
2023-02-06T13:31:35.698Z,27.67
2023-02-06T13:34:19.474Z,22.88
2023-02-06T13:36:52.526Z,18.90
2023-02-06T13:39:39.429Z,30.00
2023-02-06T13:42:34.088Z,25.83
2023-02-06T13:45:06.543Z,28.55
2023-02-06T13:48:00.703Z,26.88
2023-02-06T13:50:41.232Z,21.25
2023-02-06T13:53:29.114Z,28.63
2023-02-06T13:56:10.103Z,24.13
2023-02-06T13:58:41.974Z,25.88
2023-02-06T14:01:22.851Z,23.10
2023-02-06T14:03:52.267Z,23.83
2023-02-06T14:06:45.364Z,17.45
2023-02-06T14:09:34.198Z,21.35
2023-02-06T14:12:29.140Z,17.00
2023-02-06T14:15:12.102Z,23.80
2023-02-06T14:17:57.157Z,18.17
2023-02-06T14:20:34.553Z,23.90
2023-02-06T14:23:13.329Z,24.55
2023-02-06T14:25:49.718Z,26.83
2023-02-06T14:28:27.322Z,18.10
2023-02-06T14:31:05.895Z,17.67
2023-02-06T14:33:55.190Z,21.30
2023-02-06T14:36:44.765Z,15.45
2023-02-06T14:39:40.364Z,18.33
2023-02-06T14:42:13.050Z,21.60
2023-02-06T14:44:42.871Z,19.42
2023-02-06T14:47:19.172Z,22.80
2023-02-06T14:49:50.649Z,19.58
2023-02-06T14:52:21.998Z,25.65
2023-02-06T14:54:50.139Z,30.27
2023-02-06T14:57:23.934Z,44.85
2023-02-06T14:59:54.514Z,19.73
2023-02-06T15:02:34.625Z,24.77
2023-02-06T15:05:05.873Z,21.13
2023-02-06T15:07:35.185Z,23.17
2023-02-06T15:10:09.238Z,23.60
2023-02-06T15:12:37.939Z,26.67
2023-02-06T15:15:17.599Z,20.50
2023-02-06T15:20:31.132Z,21.92
2023-02-06T15:23:16.676Z,23.20
2023-02-06T15:25:59.920Z,20.42
2023-02-06T15:28:30.514Z,21.15
2023-02-06T15:31:01.152Z,23.52
2023-02-06T15:33:33.572Z,25.42
2023-02-06T15:36:04.675Z,23.38
2023-02-06T15:38:34.529Z,18.58
2023-02-06T15:41:06.311Z,25.38
2023-02-06T15:43:35.221Z,24.88
2023-02-06T15:46:05.603Z,19.85
2023-02-06T15:48:37.427Z,25.17
2023-02-06T15:51:19.739Z,22.95
2023-02-06T15:56:41.319Z,25.73
2023-02-06T15:59:16.234Z,23.52
2023-02-06T16:01:44.791Z,22.83
2023-02-06T16:04:18.412Z,22.50
2023-02-06T16:06:48.864Z,17.48
2023-02-06T16:09:22.169Z,20.95
2023-02-06T16:11:53.270Z,17.55
2023-02-06T16:14:25.259Z,18.42
2023-02-06T16:17:02.156Z,17.48
2023-02-06T16:19:42.687Z,13.95
2023-02-06T16:22:23.393Z,17.63
2023-02-06T16:24:53.577Z,15.80
2023-02-06T16:27:24.258Z,19.30
2023-02-06T16:29:54.242Z,17.50
2023-02-06T16:35:15.257Z,23.88
2023-02-06T16:37:45.005Z,14.98
2023-02-06T16:40:12.946Z,16.08
2023-02-06T16:42:44.195Z,22.33
2023-02-06T16:45:21.180Z,17.50
2023-02-06T16:47:49.228Z,16.30
2023-02-06T16:50:17.599Z,15.23
2023-02-06T16:52:51.515Z,16.98
2023-02-06T16:55:23.434Z,12.57
2023-02-06T16:57:54.577Z,15.48
2023-02-06T17:00:25.096Z,15.82
2023-02-06T17:02:53.546Z,21.00
2023-02-06T17:05:22.686Z,16.45
2023-02-06T17:07:51.906Z,19.05
2023-02-06T17:10:23.064Z,16.75
2023-02-06T17:12:51.509Z,17.17
2023-02-06T17:15:20.144Z,17.63
2023-02-06T17:17:48.826Z,14.43
2023-02-06T17:20:25.886Z,13.80
2023-02-06T17:22:55.495Z,13.13
2023-02-06T17:25:23.400Z,15.73
2023-02-06T17:27:51.216Z,23.50
2023-02-06T17:30:21.718Z,19.25
2023-02-06T17:32:50.080Z,23.30
2023-02-06T17:35:18.240Z,20.58
2023-02-06T17:37:46.073Z,18.70
2023-02-06T17:40:19.941Z,25.45
2023-02-06T17:42:51.395Z,17.10
2023-02-06T17:45:19.484Z,22.65
2023-02-06T17:47:47.381Z,21.40
2023-02-06T17:50:17.962Z,25.27
2023-02-06T17:52:45.921Z,23.63
2023-02-06T17:55:16.007Z,19.88
2023-02-06T17:57:44.377Z,21.10
2023-02-06T18:00:15.636Z,21.85
2023-02-06T18:02:44.709Z,18.75
2023-02-06T18:05:12.681Z,17.50
2023-02-06T18:07:41.338Z,20.65
2023-02-06T18:10:11.152Z,19.48
2023-02-06T18:15:08.811Z,18.48
2023-02-06T18:17:36.659Z,18.98
2023-02-06T18:20:05.839Z,17.90
2023-02-06T18:22:40.952Z,23.83
2023-02-06T18:25:09.736Z,31.27
2023-02-06T18:27:38.062Z,41.17
2023-02-06T18:30:09.125Z,33.88
2023-02-06T18:32:38.313Z,35.75
2023-02-06T18:35:07.385Z,30.63
2023-02-06T18:37:36.428Z,26.80
2023-02-06T18:40:04.577Z,22.92
2023-02-06T18:42:50.668Z,23.00
2023-02-06T18:45:19.944Z,26.30
2023-02-06T18:47:48.383Z,22.23
2023-02-06T18:50:17.051Z,17.23
2023-02-06T18:52:44.790Z,16.98
2023-02-06T18:55:12.599Z,12.55
2023-02-06T18:57:40.889Z,12.23
2023-02-06T19:00:10.866Z,15.38
2023-02-06T19:02:40.142Z,14.27
2023-02-06T19:05:08.433Z,12.85
2023-02-06T19:07:36.369Z,17.15
2023-02-06T19:10:10.088Z,10.50
2023-02-06T19:12:39.346Z,12.27
2023-02-06T19:15:07.904Z,16.00
2023-02-06T19:17:39.092Z,11.85
2023-02-06T19:20:10.134Z,17.67
2023-02-06T19:22:39.326Z,11.75
2023-02-06T19:25:12.078Z,17.92
2023-02-06T19:27:41.229Z,15.40
2023-02-06T19:30:10.245Z,14.18
2023-02-06T19:32:38.025Z,11.88
2023-02-06T19:35:06.905Z,13.30
2023-02-06T19:37:36.041Z,15.35
2023-02-06T19:40:03.795Z,17.38
2023-02-06T19:42:32.038Z,14.57
2023-02-06T19:44:59.862Z,15.23
2023-02-06T19:47:27.610Z,13.98
2023-02-06T19:49:56.008Z,13.35
2023-02-06T19:52:24.012Z,14.02
2023-02-06T19:54:53.357Z,13.90
2023-02-06T19:57:21.604Z,15.20
2023-02-06T19:59:49.355Z,15.13
2023-02-06T20:02:17.885Z,12.10
2023-02-06T20:04:46.365Z,19.77
2023-02-06T20:07:14.468Z,16.15
2023-02-06T20:15:47.463Z,12.52
2023-02-06T20:21:56.082Z,14.38
